• Join FlightAware (Why Join?)
  • Login
  • US Flag 
06:48AM EDT


 

Airport Tracker/Info


-or-


 

Live Flight TrackerFlight Track Log ✈ SWA183 ✈ 13-Dec-2013 ✈ KPDX - KPHX

Flight Track Log - Related Links

Times and Time Zones

All times are in EST time to prevent confusion due to time zone crossing. See the SWA183 flight status page for this flight to view local times or setup timezone preferences in your user account.

Time Position Orientation Groundspeed Altitude Reporting Facility
EST Latitude Longitude Course Direction KTS MPH feet Rate Location/Type
12:07AM 45.5844 -122.5708 106° East 139 160 800  Level Seattle Center
12:08AM 45.5783 -122.5403 106° East 155 178 1,800 2,160 Climbing Seattle Center
12:08AM 45.5731 -122.5044 102° East 193 222 3,000 2,820 Climbing Seattle Center
12:09AM 45.5664 -122.4614 102° East 198 228 4,700 3,360 Climbing Seattle Center
12:10AM 45.5500 -122.3761 105° East 213 245 8,700 3,660 Climbing Seattle Center
12:11AM 45.4958 -122.2706 126° Southeast 291 335 12,100 3,600 Climbing Seattle Center
12:12AM 45.4208 -122.1811 140° Southeast 343 395 16,000 3,300 Climbing Seattle Center
12:13AM 45.3442 -122.0828 138° Southeast 367 422 18,800 2,760 Climbing Seattle Center
12:14AM 45.2594 -121.9753 138° Southeast 401 461 21,700 3,000 Climbing Seattle Center
12:15AM 45.1733 -121.8692 139° Southeast 417 480 24,900 2,700 Climbing Seattle Center
12:16AM 45.0806 -121.7536 139° Southeast 440 506 27,200 1,980 Climbing Seattle Center
12:17AM 44.9817 -121.6333 139° Southeast 465 535 29,000 1,800 Climbing Seattle Center
12:18AM 44.8778 -121.5067 139° Southeast 490 564 30,900 1,740 Climbing Seattle Center
12:19AM 44.7692 -121.3747 139° Southeast 512 589 32,600 1,860 Climbing Seattle Center
12:20AM 44.6578 -121.2411 140° Southeast 526 605 34,700 2,160 Climbing Seattle Center
12:21AM 44.5342 -121.0919 139° Southeast 519 597 37,100 1,980 Climbing Seattle Center
12:22AM 44.4233 -120.9569 139° Southeast 517 595 38,800 1,440 Climbing Seattle Center
12:23AM 44.3322 -120.8514 140° Southeast 515 593 40,100 1,020 Climbing Seattle Center
12:24AM 44.2269 -120.7194 138° Southeast 513 590 40,900 420 Climbing Seattle Center
12:25AM 44.1003 -120.5528 137° Southeast 524 603 41,000  Climbing Seattle Center
12:26AM 43.9961 -120.4167 137° Southeast 520 598 41,000  Level Seattle Center
12:27AM 43.8931 -120.2797 136° Southeast 517 595 41,000  Level Seattle Center
12:28AM 43.7878 -120.1464 138° Southeast 516 594 41,000  Level Seattle Center
12:29AM 43.6833 -120.0136 137° Southeast 515 593 41,000  Level Seattle Center
12:30AM 43.5786 -119.8794 137° Southeast 516 594 41,000  Level Seattle Center
12:31AM 43.4731 -119.7464 138° Southeast 517 595 41,000  Level Seattle Center
12:32AM 43.3675 -119.6117 137° Southeast 519 597 41,000  Level Seattle Center
12:33AM 43.2694 -119.4889 138° Southeast 512 589 41,000  Level Seattle Center
12:34AM 43.1661 -119.3603 138° Southeast 505 581 41,000  Level Seattle Center
12:35AM 43.0522 -119.2183 138° Southeast 497 572 41,000  Level Seattle Center
12:36AM 42.9506 -119.0922 138° Southeast 498 573 41,000  Level Seattle Center
12:37AM 42.8575 -118.9772 138° Southeast 486 559 41,000  Level Salt Lake Center
12:38AM 42.7367 -118.8292 138° Southeast 488 562 41,000  Level Salt Lake Center
12:39AM 42.6367 -118.7064 138° Southeast 486 559 41,000  Level Salt Lake Center
12:40AM 42.5369 -118.5836 138° Southeast 484 557 41,000  Level Salt Lake Center
12:41AM 42.4433 -118.4717 139° Southeast 486 559 41,000  Level Salt Lake Center
12:42AM 42.3311 -118.3356 138° Southeast 486 559 41,000  Level Salt Lake Center
12:43AM 42.2336 -118.2194 139° Southeast 486 559 41,000  Level Salt Lake Center
12:44AM 42.1203 -118.0828 138° Southeast 489 563 41,000  Level Salt Lake Center
12:45AM 42.0222 -117.9672 139° Southeast 489 563 41,000  Level Salt Lake Center
12:46AM 41.9242 -117.8519 139° Southeast 489 563 41,000  Level Salt Lake Center
12:47AM 41.8086 -117.7139 138° Southeast 497 572 41,000  Level Salt Lake Center
12:48AM 41.7097 -117.5972 139° Southeast 496 571 41,000  Level Salt Lake Center
12:49AM 41.6086 -117.4819 140° Southeast 495 570 41,000  Level Salt Lake Center
12:50AM 41.4917 -117.3456 139° Southeast 498 573 41,000  Level Salt Lake Center
12:51AM 41.3906 -117.2283 139° Southeast 500 575 41,000  Level Salt Lake Center
12:52AM 41.2886 -117.1097 139° Southeast 505 581 41,000  Level Salt Lake Center
12:53AM 41.1692 -116.9731 139° Southeast 506 582 41,000  Level Salt Lake Center
12:54AM 41.0672 -116.8572 139° Southeast 504 580 41,000  Level Salt Lake Center
12:55AM 40.9647 -116.7406 139° Southeast 505 581 41,000  Level Salt Lake Center
12:56AM 40.8436 -116.6036 139° Southeast 509 586 41,000  Level Salt Lake Center
12:57AM 40.7397 -116.4872 140° Southeast 506 582 41,000  Level Salt Lake Center
12:58AM 40.6358 -116.3692 139° Southeast 509 586 41,000  Level Salt Lake Center
12:59AM 40.5306 -116.2519 140° Southeast 513 590 41,000  Level Salt Lake Center
01:00AM 40.4092 -116.1156 139° Southeast 511 588 41,000  Level Salt Lake Center
01:01AM 40.3033 -115.9994 140° Southeast 514 592 41,000  Level Salt Lake Center
01:02AM 40.1983 -115.8867 141° Southeast 510 587 41,000  Level Salt Lake Center
01:03AM 40.0806 -115.7522 139° Southeast 503 579 41,000  Level Salt Lake Center
01:04AM 39.9758 -115.6400 141° Southeast 505 581 41,000  Level Salt Lake Center
01:05AM 39.8708 -115.5292 141° Southeast 505 581 41,000  Level Salt Lake Center
01:06AM 39.7522 -115.3986 140° Southeast 501 577 41,000  Level Salt Lake Center
01:07AM 39.6514 -115.2861 139° Southeast 499 574 41,000  Level Salt Lake Center
01:08AM 39.5486 -115.1756 140° Southeast 499 574 41,000  Level Salt Lake Center
01:09AM 39.4281 -115.0489 141° Southeast 499 574 41,000  Level Salt Lake Center
01:10AM 39.3236 -114.9425 142° Southeast 498 573 41,000  Level Salt Lake Center
01:11AM 39.2225 -114.8322 140° Southeast 496 571 41,000  Level Salt Lake Center
01:12AM 39.1106 -114.7142 141° Southeast 495 570 41,000  Level Salt Lake Center
01:14AM 39.0028 -114.6033 141° Southeast 495 570 41,000  Level Salt Lake Center
01:15AM 38.8978 -114.4928 141° Southeast 493 567 41,000  Level Salt Lake Center
01:16AM 38.7933 -114.3811 140° Southeast 490 564 41,000  Level Salt Lake Center
01:17AM 38.6853 -114.2703 141° Southeast 495 570 41,000  Level Salt Lake Center
01:18AM 38.5797 -114.1600 141° Southeast 494 568 41,000  Level Salt Lake Center
01:19AM 38.4703 -114.0500 142° Southeast 497 572 41,000  Level Salt Lake Center
01:20AM 38.3650 -113.9386 140° Southeast 496 571 41,000  Level Salt Lake Center
01:21AM 38.2572 -113.8300 142° Southeast 495 570 41,000  Level Salt Lake Center
01:22AM 38.1494 -113.7214 142° Southeast 496 571 41,000  Level Salt Lake Center
01:23AM 38.0214 -113.5911 141° Southeast 494 568 41,000  Level Salt Lake Center
01:24AM 37.9114 -113.4861 143° Southeast 497 572 41,000  Level Salt Lake Center
01:25AM 37.7875 -113.4119 155° Southeast 495 570 41,000  Level Salt Lake Center
01:26AM 37.6644 -113.3378 154° Southeast 495 570 41,000  Level Salt Lake Center
01:27AM 37.5425 -113.2647 155° Southeast 492 566 41,000  Level Salt Lake Center
01:28AM 37.4211 -113.1900 154° Southeast 494 568 41,000 -60 Level Salt Lake Center
01:29AM 37.2981 -113.1167 155° Southeast 495 570 40,900 -480 Descending Salt Lake Center
01:30AM 37.1756 -113.0419 154° Southeast 495 570 40,100 -900 Descending Salt Lake Center
01:31AM 37.0500 -112.9667 154° Southeast 500 575 39,200 -600 Descending Salt Lake Center
01:32AM 36.9264 -112.8947 155° Southeast 496 571 39,000 -120 Descending Salt Lake Center
01:33AM 36.8036 -112.8217 155° Southeast 492 566 39,000 -360 Level Salt Lake Center
01:34AM 36.6814 -112.7497 155° Southeast 490 564 38,300 -2,040 Descending Salt Lake Center
01:35AM 36.5353 -112.6642 155° Southeast 486 559 34,900 -2,220 Descending Salt Lake Center
01:36AM 36.3622 -112.5611 154° Southeast 492 566 33,000 -840 Descending Los Angeles Center
01:37AM 36.2308 -112.5139 164° South 494 568 33,000  Level Los Angeles Center
01:38AM 36.0964 -112.4908 172° South 489 563 33,000  Level Los Angeles Center
01:39AM 35.9622 -112.4664 172° South 488 562 33,000  Level Los Angeles Center
01:40AM 35.8317 -112.4447 172° South 490 564 33,000  Level Los Angeles Center
01:41AM 35.6975 -112.4200 171° South 488 562 33,000  Level Los Angeles Center
01:42AM 35.5581 -112.3942 171° South 501 577 33,000  Level Los Angeles Center
01:43AM 35.4225 -112.3703 172° South 492 566 33,000  Level Los Angeles Center
01:44AM 35.2881 -112.3478 172° South 487 560 33,000  Level Los Angeles Center
01:45AM 35.1539 -112.3242 172° South 485 558 33,000  Level Los Angeles Center
01:46AM 35.0208 -112.3006 172° South 482 555 33,000 -1,320 Level Albuquerque Center
01:47AM 34.8872 -112.2775 172° South 483 556 30,300 -2,760 Descending Albuquerque Center
01:48AM 34.7442 -112.2519 172° South 484 557 27,500 -2,640 Descending Albuquerque Center
01:49AM 34.6153 -112.2303 172° South 474 545 25,000 -2,460 Descending Albuquerque Center
01:50AM 34.4903 -112.2072 171° South 461 531 22,600 -2,400 Descending Albuquerque Center
01:51AM 34.3694 -112.1864 172° South 446 513 20,200 -2,340 Descending Albuquerque Center
01:52AM 34.2514 -112.1656 172° South 435 501 17,900 -2,100 Descending Albuquerque Center
01:53AM 34.1347 -112.1447 172° South 428 493 16,000 -1,500 Descending Albuquerque Center
01:54AM 34.0308 -112.1219 170° South 387 445 14,900 -1,800 Descending Albuquerque Center
01:55AM 33.9333 -112.0967 168° South 366 421 12,400 -2,040 Descending Albuquerque Center
01:56AM 33.8378 -112.0739 169° South 355 409 10,800 -1,200 Descending Albuquerque Center
01:57AM 33.7533 -112.0517 168° South 317 365 10,000 -720 Descending Albuquerque Center
01:58AM 33.6567 -112.0353 172° South 295 339 9,400 -600 Descending Albuquerque Center
01:59AM 33.6000 -112.0333 178° South 277 319 9,100 -960 Descending Phoenix TRACON
02:00AM 33.5500 -111.9833 140° Southeast 254 292 7,900 -1,380 Descending Phoenix TRACON
02:01AM 33.5167 -111.9167 121° Southeast 215 247 6,200 -1,620 Descending Phoenix TRACON
02:02AM 33.4833 -111.8833 140° Southeast 191 220 4,500 -1,560 Descending Phoenix TRACON
02:03AM 33.4333 -111.9000 196° South 164 189 3,100 -1,200 Descending Phoenix TRACON
02:04AM 33.4333 -111.9500 270° West 135 155 2,100 -1,020 Descending Phoenix TRACON